createdAt,value
2023-02-04T00:00:37.744Z,13.57
2023-02-04T00:03:06.948Z,12.13
2023-02-04T00:05:35.443Z,13.30
2023-02-04T00:08:06.461Z,17.50
2023-02-04T00:10:37.252Z,15.90
2023-02-04T00:13:05.656Z,12.63
2023-02-04T00:15:34.003Z,14.73
2023-02-04T00:18:04.342Z,14.75
2023-02-04T00:20:34.182Z,11.82
2023-02-04T00:23:04.132Z,12.18
2023-02-04T00:25:33.826Z,12.52
2023-02-04T00:28:04.431Z,11.18
2023-02-04T00:30:33.397Z,13.90
2023-02-04T00:33:01.795Z,9.52
2023-02-04T00:35:30.176Z,13.18
2023-02-04T00:37:58.694Z,12.93
2023-02-04T00:40:27.058Z,10.50
2023-02-04T00:42:55.440Z,16.92
2023-02-04T00:45:25.404Z,14.00
2023-02-04T00:47:53.849Z,21.77
2023-02-04T00:50:22.198Z,15.88
2023-02-04T00:52:50.597Z,15.57
2023-02-04T00:55:19.025Z,16.85
2023-02-04T00:57:48.306Z,14.63
2023-02-04T01:00:19.119Z,13.27
2023-02-04T01:02:48.986Z,14.88
2023-02-04T01:05:17.359Z,15.85
2023-02-04T01:07:45.736Z,13.82
2023-02-04T01:10:16.313Z,15.48
2023-02-04T01:12:45.059Z,12.43
2023-02-04T01:15:13.551Z,12.82
2023-02-04T01:17:42.689Z,15.30
2023-02-04T01:20:13.575Z,13.98
2023-02-04T01:22:43.057Z,14.75
2023-02-04T01:25:11.452Z,13.65
2023-02-04T01:27:39.810Z,19.30
2023-02-04T01:30:09.565Z,11.48
2023-02-04T01:32:37.950Z,13.75
2023-02-04T01:35:07.595Z,16.20
2023-02-04T01:37:37.475Z,11.60
2023-02-04T01:40:07.314Z,12.80
2023-02-04T01:42:35.754Z,13.82
2023-02-04T01:45:06.438Z,10.38
2023-02-04T01:47:35.242Z,14.15
2023-02-04T01:50:04.127Z,14.27
2023-02-04T01:52:38.361Z,14.85
2023-02-04T01:55:12.657Z,12.77
2023-02-04T01:57:41.230Z,14.63
2023-02-04T02:00:15.867Z,17.20
2023-02-04T02:02:47.297Z,8.98
2023-02-04T02:05:21.322Z,11.57
2023-02-04T02:07:52.476Z,16.00
2023-02-04T02:10:21.474Z,12.45
2023-02-04T02:12:50.935Z,12.27
2023-02-04T02:15:20.206Z,10.32
2023-02-04T02:17:48.905Z,10.85
2023-02-04T02:20:19.484Z,10.88
2023-02-04T02:22:59.640Z,14.00
2023-02-04T02:25:29.457Z,18.63
2023-02-04T02:27:59.780Z,10.43
2023-02-04T02:30:30.246Z,11.93
2023-02-04T02:32:59.376Z,14.98
2023-02-04T02:35:27.981Z,12.32
2023-02-04T02:37:56.371Z,11.35
2023-02-04T02:40:25.047Z,9.43
2023-02-04T02:42:55.582Z,10.70
2023-02-04T02:45:27.054Z,11.57
2023-02-04T02:47:57.603Z,9.70
2023-02-04T02:50:28.064Z,10.32
2023-02-04T02:52:57.228Z,10.85
2023-02-04T02:55:28.013Z,11.85
2023-02-04T02:57:58.978Z,12.18
2023-02-04T03:00:29.962Z,11.85
2023-02-04T03:03:02.643Z,13.02
2023-02-04T03:05:34.081Z,11.85
2023-02-04T03:08:02.862Z,12.70
2023-02-04T03:10:31.597Z,15.70
2023-02-04T03:13:01.983Z,14.95
2023-02-04T03:15:30.658Z,12.98
2023-02-04T03:17:59.541Z,9.35
2023-02-04T03:20:31.274Z,16.25
2023-02-04T03:23:00.103Z,13.80
2023-02-04T03:25:29.409Z,14.77
2023-02-04T03:27:59.330Z,7.07
2023-02-04T03:30:29.777Z,3.10
2023-02-04T03:32:58.690Z,1.95
2023-02-04T03:35:27.149Z,1.10
2023-02-04T03:37:55.592Z,2.33
2023-02-04T03:40:23.917Z,0.75
2023-02-04T03:42:52.257Z,2.10
2023-02-04T03:45:20.757Z,0.60
2023-02-04T03:47:50.572Z,6.75
2023-02-04T03:50:19.044Z,0.80
2023-02-04T03:52:49.087Z,0.75
2023-02-04T03:55:17.539Z,0.63
2023-02-04T03:57:45.885Z,1.23
2023-02-04T04:00:15.476Z,0.60
2023-02-04T04:02:44.530Z,1.88
2023-02-04T04:05:14.418Z,0.50
2023-02-04T04:07:42.816Z,1.05
2023-02-04T04:10:11.558Z,0.80
2023-02-04T04:12:39.937Z,1.60
2023-02-04T04:15:08.936Z,0.43
2023-02-04T04:17:37.304Z,2.25
2023-02-04T04:20:06.796Z,1.25
2023-02-04T04:22:36.599Z,0.90
2023-02-04T04:25:05.261Z,0.93
2023-02-04T04:27:33.875Z,1.38
2023-02-04T04:30:02.463Z,0.88
2023-02-04T04:32:30.828Z,1.67
2023-02-04T04:34:59.217Z,3.33
2023-02-04T04:37:27.673Z,1.63
2023-02-04T04:39:57.422Z,1.42
2023-02-04T04:42:25.830Z,1.38
2023-02-04T04:44:54.116Z,2.80
2023-02-04T04:47:22.483Z,2.85
2023-02-04T04:49:50.893Z,1.20
2023-02-04T04:52:19.362Z,2.40
2023-02-04T04:54:47.643Z,1.05
2023-02-04T04:57:17.524Z,2.15
2023-02-04T04:59:45.917Z,2.67
2023-02-04T05:02:14.264Z,2.17
2023-02-04T05:04:42.745Z,3.70
2023-02-04T05:07:11.155Z,1.55
2023-02-04T05:09:39.468Z,2.47
2023-02-04T05:12:07.995Z,2.25
2023-02-04T05:14:37.690Z,1.25
2023-02-04T05:17:06.805Z,1.48
2023-02-04T05:19:35.171Z,1.38
2023-02-04T05:22:03.548Z,2.25
2023-02-04T05:24:31.821Z,2.08
2023-02-04T05:27:00.401Z,1.88
2023-02-04T05:29:28.806Z,1.95
2023-02-04T05:31:58.638Z,1.33
2023-02-04T05:34:27.082Z,2.75
2023-02-04T05:36:55.478Z,2.40
2023-02-04T05:39:23.875Z,2.08
2023-02-04T05:41:52.244Z,2.20
2023-02-04T05:44:20.656Z,3.17
2023-02-04T05:46:49.039Z,1.63
2023-02-04T05:49:18.839Z,1.90
2023-02-04T05:51:47.226Z,2.17
2023-02-04T05:54:19.591Z,2.15
2023-02-04T05:56:48.589Z,1.75
2023-02-04T05:59:16.919Z,1.80
2023-02-04T06:01:45.417Z,2.05
2023-02-04T06:04:15.626Z,3.00
2023-02-04T06:06:45.738Z,4.03
2023-02-04T06:09:14.297Z,2.40
2023-02-04T06:11:42.653Z,2.83
2023-02-04T06:14:11.036Z,2.67
2023-02-04T06:16:39.380Z,2.33
2023-02-04T06:19:07.812Z,3.65
2023-02-04T06:21:36.152Z,1.92
2023-02-04T06:24:06.437Z,1.85
2023-02-04T06:26:34.776Z,2.08
2023-02-04T06:29:03.233Z,3.60
2023-02-04T06:31:31.903Z,3.08
2023-02-04T06:34:00.367Z,1.95
2023-02-04T06:36:28.746Z,3.13
2023-02-04T06:38:57.593Z,2.78
2023-02-04T06:41:27.416Z,2.75
2023-02-04T06:43:55.750Z,2.05
2023-02-04T06:46:24.451Z,5.75
2023-02-04T06:48:52.868Z,2.60
2023-02-04T06:51:21.196Z,2.03
2023-02-04T06:53:49.623Z,2.20
2023-02-04T06:56:18.033Z,2.03
2023-02-04T06:58:47.880Z,1.20
2023-02-04T07:01:16.360Z,3.47
2023-02-04T07:03:44.789Z,2.05
2023-02-04T07:06:13.210Z,2.75
2023-02-04T07:08:41.588Z,2.35
2023-02-04T07:11:10.075Z,1.60
2023-02-04T07:13:38.454Z,1.83
2023-02-04T07:16:09.313Z,4.35
2023-02-04T07:18:37.780Z,5.05
2023-02-04T07:21:06.512Z,2.28
2023-02-04T07:23:34.831Z,2.30
2023-02-04T07:26:03.189Z,1.13
2023-02-04T07:28:31.695Z,1.65
2023-02-04T07:31:00.213Z,2.58
2023-02-04T07:33:30.367Z,4.43
2023-02-04T07:35:58.670Z,2.00
2023-02-04T07:38:27.143Z,1.20
2023-02-04T07:40:55.569Z,2.75
2023-02-04T07:43:24.600Z,2.88
2023-02-04T07:45:52.934Z,3.00
2023-02-04T07:48:21.426Z,3.28
2023-02-04T07:50:51.259Z,2.38
2023-02-04T07:53:19.595Z,1.95
2023-02-04T07:55:47.945Z,2.70
2023-02-04T07:58:16.498Z,2.20
2023-02-04T08:00:44.895Z,2.85
2023-02-04T08:03:13.204Z,3.35
2023-02-04T08:05:41.672Z,4.43
2023-02-04T08:08:11.377Z,2.45
2023-02-04T08:10:39.818Z,2.40
2023-02-04T08:13:08.256Z,2.85
2023-02-04T08:15:36.688Z,1.92
2023-02-04T08:18:05.873Z,2.33
2023-02-04T08:20:34.920Z,1.50
2023-02-04T08:23:03.420Z,1.92
2023-02-04T08:25:33.124Z,2.35
2023-02-04T08:28:01.591Z,2.20
2023-02-04T08:30:30.338Z,1.73
2023-02-04T08:32:59.164Z,1.00
2023-02-04T08:35:27.991Z,2.28
2023-02-04T08:37:56.471Z,3.42
2023-02-04T08:40:24.757Z,1.85
2023-02-04T08:42:54.626Z,0.75
2023-02-04T08:45:22.965Z,4.22
2023-02-04T08:47:51.284Z,3.25
2023-02-04T08:50:19.919Z,3.78
2023-02-04T08:52:48.285Z,2.22
2023-02-04T08:55:17.080Z,1.13
2023-02-04T08:57:45.437Z,2.65
2023-02-04T09:00:16.551Z,1.50
2023-02-04T09:02:45.047Z,1.92
2023-02-04T09:05:13.552Z,2.10
2023-02-04T09:07:41.840Z,1.65
2023-02-04T09:10:10.590Z,3.20
2023-02-04T09:12:39.005Z,1.80
2023-02-04T09:15:07.807Z,2.05
2023-02-04T09:17:37.813Z,3.53
2023-02-04T09:20:07.947Z,1.67
2023-02-04T09:22:37.936Z,3.63
2023-02-04T09:25:06.852Z,2.08
2023-02-04T09:27:35.228Z,2.22
2023-02-04T09:30:03.566Z,1.35
2023-02-04T09:32:32.081Z,1.90
2023-02-04T09:35:01.966Z,2.20
2023-02-04T09:37:30.398Z,1.48
2023-02-04T09:39:58.729Z,2.30
2023-02-04T09:42:28.209Z,2.05
2023-02-04T09:44:56.647Z,1.42
2023-02-04T09:47:26.808Z,1.30
2023-02-04T09:49:55.181Z,1.65
2023-02-04T09:52:25.242Z,2.97
2023-02-04T09:54:53.584Z,1.65
2023-02-04T09:57:22.615Z,1.80
2023-02-04T09:59:52.933Z,1.92
2023-02-04T10:02:26.510Z,2.08
2023-02-04T10:04:59.067Z,2.20
2023-02-04T10:07:32.482Z,2.85
2023-02-04T10:10:01.659Z,1.75
2023-02-04T10:12:32.607Z,1.83
2023-02-04T10:15:04.354Z,1.10
2023-02-04T10:17:33.604Z,1.40
2023-02-04T10:20:03.787Z,1.30
2023-02-04T10:22:34.333Z,13.75
2023-02-04T10:25:03.009Z,3.45
2023-02-04T10:27:31.395Z,2.63
2023-02-04T10:30:00.702Z,1.52
2023-02-04T10:32:31.598Z,1.80
2023-02-04T10:35:04.224Z,1.92
2023-02-04T10:37:34.670Z,1.67
2023-02-04T10:40:03.011Z,1.48
2023-02-04T10:42:32.634Z,1.90
2023-02-04T10:45:01.306Z,2.58
2023-02-04T10:47:31.967Z,2.88
2023-02-04T10:50:04.851Z,1.77
2023-02-04T10:52:39.589Z,1.08
2023-02-04T10:55:13.702Z,2.22
2023-02-04T10:57:43.718Z,2.45
2023-02-04T11:00:18.637Z,3.05
2023-02-04T11:02:53.826Z,4.30
2023-02-04T11:05:24.740Z,1.95
2023-02-04T11:07:54.628Z,1.38
2023-02-04T11:10:25.748Z,2.13
2023-02-04T11:13:05.871Z,3.17
2023-02-04T11:15:47.420Z,1.90
2023-02-04T11:18:30.259Z,2.85
2023-02-04T11:21:00.728Z,2.67
2023-02-04T11:23:38.170Z,0.80
2023-02-04T11:26:10.693Z,1.77
2023-02-04T11:28:52.482Z,1.08
2023-02-04T11:31:47.084Z,1.77
2023-02-04T11:34:32.735Z,1.50
2023-02-04T11:37:29.040Z,1.02
2023-02-04T11:40:02.966Z,1.73
2023-02-04T11:42:44.909Z,2.65
2023-02-04T11:45:17.344Z,1.65
2023-02-04T11:47:46.337Z,6.05
2023-02-04T11:50:19.206Z,1.40
2023-02-04T11:52:47.613Z,3.60
2023-02-04T11:55:19.376Z,2.20
2023-02-04T11:57:53.503Z,4.03
2023-02-04T12:00:26.225Z,2.40
2023-02-04T12:02:59.339Z,1.33
2023-02-04T12:05:39.718Z,0.85
2023-02-04T12:08:13.302Z,0.95
2023-02-04T12:10:51.332Z,1.52
2023-02-04T12:13:28.298Z,1.08
2023-02-04T12:16:01.999Z,1.08
2023-02-04T12:18:31.177Z,0.95
2023-02-04T12:21:00.799Z,2.55
2023-02-04T12:23:31.195Z,1.85
2023-02-04T12:26:01.315Z,5.38
2023-02-04T12:28:30.000Z,1.67
2023-02-04T12:30:58.954Z,6.47
2023-02-04T12:33:27.459Z,5.07
2023-02-04T12:35:56.035Z,2.03
2023-02-04T12:38:24.355Z,1.00
2023-02-04T12:40:52.785Z,0.93
2023-02-04T12:43:22.877Z,1.60
2023-02-04T12:45:51.324Z,2.90
2023-02-04T12:48:19.654Z,1.58
2023-02-04T12:50:48.079Z,1.92
2023-02-04T12:53:17.307Z,1.88
2023-02-04T12:55:47.098Z,2.00
2023-02-04T12:58:15.684Z,2.63
2023-02-04T13:00:46.334Z,3.30
2023-02-04T13:03:14.994Z,2.53
2023-02-04T13:05:43.499Z,1.00
2023-02-04T13:08:12.700Z,1.55
2023-02-04T13:10:41.650Z,1.33
2023-02-04T13:13:11.001Z,2.55
2023-02-04T13:15:39.708Z,1.38
2023-02-04T13:18:09.668Z,1.50
2023-02-04T13:20:39.126Z,0.75
2023-02-04T13:23:08.328Z,2.45
2023-02-04T13:25:38.129Z,2.60
2023-02-04T13:28:06.807Z,1.02
2023-02-04T13:30:35.387Z,1.58
2023-02-04T13:33:03.937Z,1.92
2023-02-04T13:35:34.200Z,1.63
2023-02-04T13:38:03.027Z,1.23
2023-02-04T13:40:31.937Z,2.67
2023-02-04T13:43:00.348Z,1.40
2023-02-04T13:45:29.034Z,1.60
2023-02-04T13:47:58.505Z,4.07
2023-02-04T13:50:26.920Z,6.88
2023-02-04T13:52:57.003Z,3.45
2023-02-04T13:55:25.399Z,1.50
2023-02-04T13:57:54.178Z,1.15
2023-02-04T14:00:23.828Z,1.20
2023-02-04T14:03:04.081Z,2.63
2023-02-04T14:05:33.448Z,0.80
2023-02-04T14:08:04.480Z,0.85
2023-02-04T14:10:33.240Z,1.35
2023-02-04T14:13:02.144Z,1.95
2023-02-04T14:15:30.979Z,3.67
2023-02-04T14:17:59.379Z,1.38
2023-02-04T14:20:27.857Z,1.95
2023-02-04T14:22:57.477Z,1.50
2023-02-04T14:25:27.422Z,1.50
2023-02-04T14:27:58.671Z,1.80
2023-02-04T14:30:30.454Z,1.80
2023-02-04T14:33:00.032Z,1.00
2023-02-04T14:35:28.625Z,1.75
2023-02-04T14:37:57.112Z,1.20
2023-02-04T14:40:27.278Z,1.35
2023-02-04T14:42:55.645Z,0.40
2023-02-04T14:45:24.705Z,1.00
2023-02-04T14:47:57.065Z,1.10
2023-02-04T14:50:27.284Z,3.15
2023-02-04T14:52:57.017Z,0.52
2023-02-04T14:55:27.328Z,1.17
2023-02-04T14:57:55.709Z,1.05
2023-02-04T15:00:25.908Z,2.40
2023-02-04T15:02:55.656Z,1.75
2023-02-04T15:05:24.015Z,3.38
2023-02-04T15:07:52.345Z,0.82
2023-02-04T15:10:21.421Z,1.13
2023-02-04T15:12:51.507Z,1.38
2023-02-04T15:15:20.024Z,0.82
2023-02-04T15:17:50.691Z,1.08
2023-02-04T15:20:20.085Z,1.25
2023-02-04T15:22:52.193Z,3.17
2023-02-04T15:25:20.737Z,1.35
2023-02-04T15:27:51.687Z,1.65
2023-02-04T15:30:20.278Z,1.38
2023-02-04T15:32:48.923Z,1.17
2023-02-04T15:35:18.407Z,3.05
2023-02-04T15:37:46.878Z,1.05
2023-02-04T15:40:16.418Z,0.77
2023-02-04T15:42:44.858Z,1.77
2023-02-04T15:45:15.474Z,0.65
2023-02-04T15:47:44.764Z,1.17
2023-02-04T15:50:15.389Z,2.10
2023-02-04T15:52:44.238Z,2.75
2023-02-04T15:55:12.599Z,1.40
2023-02-04T15:57:41.961Z,1.08
2023-02-04T16:00:11.400Z,1.02
2023-02-04T16:02:43.245Z,1.20
2023-02-04T16:05:11.712Z,1.40
2023-02-04T16:07:40.031Z,3.00
2023-02-04T16:10:09.219Z,1.60
2023-02-04T16:12:37.601Z,1.02
2023-02-04T16:15:06.452Z,1.25
2023-02-04T16:17:34.830Z,6.30
2023-02-04T16:20:04.986Z,2.72
2023-02-04T16:22:33.787Z,6.00
2023-02-04T16:25:02.171Z,4.05
2023-02-04T16:27:32.002Z,4.18
2023-02-04T16:30:00.536Z,7.68
2023-02-04T16:32:29.168Z,11.27
2023-02-04T16:34:59.711Z,5.25
2023-02-04T16:37:29.761Z,8.57
2023-02-04T16:39:58.216Z,9.43
2023-02-04T16:42:26.572Z,3.97
2023-02-04T16:44:54.917Z,3.63
2023-02-04T16:47:23.459Z,4.55
2023-02-04T16:49:52.042Z,3.22
2023-02-04T16:52:20.487Z,5.07
2023-02-04T16:54:50.296Z,3.03
2023-02-04T16:57:18.845Z,2.47
2023-02-04T16:59:47.276Z,3.53
2023-02-04T17:02:15.673Z,2.20
2023-02-04T17:04:43.952Z,2.55
2023-02-04T17:07:12.334Z,2.92
2023-02-04T17:09:40.672Z,5.18
2023-02-04T17:12:10.627Z,1.88
2023-02-04T17:14:41.242Z,4.30
2023-02-04T17:17:09.713Z,4.72
2023-02-04T17:19:38.040Z,7.10
2023-02-04T17:22:06.363Z,5.85
2023-02-04T17:24:36.601Z,14.65
2023-02-04T17:27:04.987Z,5.68
2023-02-04T17:29:34.958Z,8.98
2023-02-04T17:32:03.295Z,8.60
2023-02-04T17:34:31.720Z,21.63
2023-02-04T17:37:00.063Z,23.58
2023-02-04T17:39:28.496Z,16.67
2023-02-04T17:41:56.830Z,13.80
2023-02-04T17:44:27.094Z,18.77
2023-02-04T17:46:59.165Z,8.93
2023-02-04T17:49:27.942Z,9.15
2023-02-04T17:51:56.465Z,10.45
2023-02-04T17:54:25.248Z,8.52
2023-02-04T17:56:53.726Z,7.63
2023-02-04T17:59:22.206Z,10.93
2023-02-04T18:01:50.952Z,19.73
2023-02-04T18:04:21.201Z,8.25
2023-02-04T18:06:53.011Z,7.63
2023-02-04T18:09:21.490Z,17.38
2023-02-04T18:11:49.852Z,5.00
2023-02-04T18:14:22.277Z,5.10
2023-02-04T18:16:50.713Z,5.35
2023-02-04T18:19:22.274Z,5.60
2023-02-04T18:21:51.722Z,5.95
2023-02-04T18:24:24.058Z,7.00
2023-02-04T18:26:54.012Z,8.80
2023-02-04T18:29:34.121Z,7.95
2023-02-04T18:32:04.659Z,6.90
2023-02-04T18:34:38.734Z,2.95
2023-02-04T18:37:30.034Z,2.70
2023-02-04T18:40:17.802Z,4.20
2023-02-04T18:42:47.498Z,2.03
2023-02-04T18:45:24.172Z,4.88
2023-02-04T18:47:55.315Z,1.77
2023-02-04T18:50:29.924Z,1.52
2023-02-04T18:53:01.974Z,3.60
2023-02-04T18:55:34.946Z,1.77
2023-02-04T18:58:27.656Z,4.45
2023-02-04T19:00:59.851Z,2.22
2023-02-04T19:03:30.103Z,2.45
2023-02-04T19:06:02.011Z,3.30
2023-02-04T19:08:37.191Z,13.20
2023-02-04T19:11:18.367Z,8.43
2023-02-04T19:13:47.095Z,6.38
2023-02-04T19:16:23.535Z,6.22
2023-02-04T19:18:54.026Z,7.25
2023-02-04T19:21:30.076Z,6.70
2023-02-04T19:24:09.434Z,13.30
2023-02-04T19:26:41.471Z,45.60
2023-02-04T19:29:41.555Z,18.27
2023-02-04T19:32:28.650Z,7.30
2023-02-04T19:35:01.341Z,5.18
2023-02-04T19:37:40.034Z,7.10
2023-02-04T19:40:29.172Z,12.23
2023-02-04T19:43:04.213Z,8.73
2023-02-04T19:45:32.809Z,6.30
2023-02-04T19:48:03.411Z,5.75
2023-02-04T19:50:35.596Z,5.72
2023-02-04T19:53:14.397Z,7.63
2023-02-04T19:55:45.352Z,8.13
2023-02-04T19:58:20.192Z,6.68
2023-02-04T20:01:00.537Z,5.13
2023-02-04T20:03:42.843Z,5.15
2023-02-04T20:06:33.857Z,5.22
2023-02-04T20:09:08.196Z,6.10
2023-02-04T20:11:58.292Z,18.27
2023-02-04T20:14:42.893Z,13.90
2023-02-04T20:17:20.642Z,8.15
2023-02-04T20:19:49.659Z,6.63
2023-02-04T20:22:45.777Z,5.88
2023-02-04T20:25:38.621Z,5.00
2023-02-04T20:28:36.069Z,7.45
2023-02-04T20:31:23.841Z,7.63
2023-02-04T20:33:54.394Z,5.53
2023-02-04T20:36:38.549Z,9.32
2023-02-04T20:39:34.342Z,13.75
2023-02-04T20:42:40.411Z,11.05
2023-02-04T20:45:24.669Z,9.95
2023-02-04T20:47:55.493Z,8.43
2023-02-04T20:50:38.415Z,9.02
2023-02-04T20:53:23.646Z,8.95
2023-02-04T20:55:55.502Z,7.65
2023-02-04T20:58:28.184Z,6.80
2023-02-04T21:00:57.003Z,8.70
2023-02-04T21:03:29.036Z,10.60
2023-02-04T21:06:00.201Z,9.18
2023-02-04T21:08:38.295Z,8.05
2023-02-04T21:11:07.147Z,5.30
2023-02-04T21:13:37.686Z,8.23
2023-02-04T21:16:08.158Z,10.00
2023-02-04T21:18:37.379Z,15.02
2023-02-04T21:21:08.029Z,13.85
2023-02-04T21:23:36.896Z,13.93
2023-02-04T21:26:05.840Z,10.95
2023-02-04T21:28:34.771Z,11.55
2023-02-04T21:31:04.739Z,11.93
2023-02-04T21:33:33.345Z,12.70
2023-02-04T21:36:01.750Z,12.05
2023-02-04T21:38:30.024Z,9.68
2023-02-04T21:40:58.475Z,9.65
2023-02-04T21:43:26.946Z,9.55
2023-02-04T21:45:55.411Z,7.90
2023-02-04T21:48:25.128Z,8.20
2023-02-04T21:50:54.034Z,5.80
2023-02-04T21:53:22.440Z,5.68
2023-02-04T21:55:50.885Z,4.78
2023-02-04T21:58:19.199Z,6.38
2023-02-04T22:00:47.538Z,7.85
2023-02-04T22:03:17.556Z,8.55
2023-02-04T22:05:47.345Z,8.65
2023-02-04T22:08:15.759Z,6.85
2023-02-04T22:10:44.141Z,12.15
2023-02-04T22:13:29.616Z,7.47
2023-02-04T22:15:58.054Z,8.90
2023-02-04T22:18:26.478Z,9.77
2023-02-04T22:20:56.324Z,9.48
2023-02-04T22:23:24.711Z,10.13
2023-02-04T22:25:53.162Z,11.68
2023-02-04T22:28:21.671Z,9.93
2023-02-04T22:30:50.792Z,7.53
2023-02-04T22:33:20.160Z,8.52
2023-02-04T22:35:48.678Z,11.40
2023-02-04T22:38:20.615Z,8.45
2023-02-04T22:40:50.170Z,8.50
2023-02-04T22:43:18.677Z,7.85
2023-02-04T22:45:46.951Z,8.95
2023-02-04T22:48:15.405Z,6.93
2023-02-04T22:50:43.745Z,6.30
2023-02-04T22:53:12.075Z,5.55
2023-02-04T22:55:41.948Z,6.85
2023-02-04T22:58:10.307Z,6.53
2023-02-04T23:00:38.717Z,5.18
2023-02-04T23:03:07.150Z,5.30
2023-02-04T23:05:36.554Z,6.43
2023-02-04T23:08:05.082Z,4.90
2023-02-04T23:10:33.592Z,5.47
2023-02-04T23:13:03.480Z,4.72
2023-02-04T23:15:32.143Z,4.97
2023-02-04T23:18:00.722Z,5.45
2023-02-04T23:20:29.416Z,5.40
2023-02-04T23:22:57.992Z,7.35
2023-02-04T23:25:26.340Z,5.70
2023-02-04T23:27:54.838Z,7.90
2023-02-04T23:30:24.812Z,6.60
2023-02-04T23:32:53.292Z,6.53
2023-02-04T23:35:21.588Z,7.38
2023-02-04T23:37:50.090Z,6.30
2023-02-04T23:40:18.738Z,5.95
2023-02-04T23:42:47.246Z,9.35
2023-02-04T23:45:15.762Z,13.65
2023-02-04T23:47:45.635Z,9.93
2023-02-04T23:50:14.129Z,11.80
2023-02-04T23:52:43.159Z,8.43
2023-02-04T23:55:11.876Z,6.90
2023-02-04T23:57:40.529Z,7.10
